sensor_id;sensor_type;location;lat;lon;timestamp;pressure;altitude;pressure_sealevel;temperature;humidity
64362;BME280;50685;53.346;-6.296;2023-04-27T00:00:51;101419.78;;;9.99;63.60
64362;BME280;50685;53.346;-6.296;2023-04-27T00:03:20;101420.66;;;9.97;64.04
64362;BME280;50685;53.346;-6.296;2023-04-27T00:05:50;101376.50;;;9.75;63.60
64362;BME280;50685;53.346;-6.296;2023-04-27T00:08:21;101425.06;;;10.00;63.58
64362;BME280;50685;53.346;-6.296;2023-04-27T00:10:57;101422.44;;;10.02;63.67
64362;BME280;50685;53.346;-6.296;2023-04-27T00:13:23;101395.91;;;9.89;63.94
64362;BME280;50685;53.346;-6.296;2023-04-27T00:15:57;101384.47;;;9.87;63.93
64362;BME280;50685;53.346;-6.296;2023-04-27T00:18:34;101365.88;;;9.73;64.03
64362;BME280;50685;53.346;-6.296;2023-04-27T00:21:08;101321.78;;;9.57;63.91
64362;BME280;50685;53.346;-6.296;2023-04-27T00:23:43;101403.88;;;10.05;64.13
64362;BME280;50685;53.346;-6.296;2023-04-27T00:26:11;101404.75;;;10.08;63.99
64362;BME280;50685;53.346;-6.296;2023-04-27T00:29:10;101357.94;;;9.84;64.18
64362;BME280;50685;53.346;-6.296;2023-04-27T00:31:56;101367.66;;;9.85;63.92
64362;BME280;50685;53.346;-6.296;2023-04-27T00:34:38;101410.06;;;10.13;63.90
64362;BME280;50685;53.346;-6.296;2023-04-27T00:37:06;101399.44;;;10.13;63.98
64362;BME280;50685;53.346;-6.296;2023-04-27T00:39:33;101407.38;;;10.16;63.74
64362;BME280;50685;53.346;-6.296;2023-04-27T00:42:00;101397.69;;;10.17;64.23
64362;BME280;50685;53.346;-6.296;2023-04-27T00:44:34;101389.72;;;10.18;63.93
64362;BME280;50685;53.346;-6.296;2023-04-27T00:47:12;101391.50;;;10.19;63.79
64362;BME280;50685;53.346;-6.296;2023-04-27T00:49:38;101370.31;;;10.07;63.80
64362;BME280;50685;53.346;-6.296;2023-04-27T00:52:05;101370.28;;;10.19;63.59
64362;BME280;50685;53.346;-6.296;2023-04-27T00:54:35;101332.31;;;9.94;63.45
64362;BME280;50685;53.346;-6.296;2023-04-27T00:57:12;101349.97;;;10.10;63.17
64362;BME280;50685;53.346;-6.296;2023-04-27T00:59:38;101310.22;;;9.96;63.51
64362;BME280;50685;53.346;-6.296;2023-04-27T01:02:03;101304.97;;;9.93;63.54
64362;BME280;50685;53.346;-6.296;2023-04-27T01:04:29;101355.25;;;10.20;63.08
64362;BME280;50685;53.346;-6.296;2023-04-27T01:06:56;101306.72;;;9.94;63.73
64362;BME280;50685;53.346;-6.296;2023-04-27T01:09:24;101273.19;;;9.76;64.16
64362;BME280;50685;53.346;-6.296;2023-04-27T01:11:49;101294.38;;;9.92;64.12
64362;BME280;50685;53.346;-6.296;2023-04-27T01:14:15;101283.78;;;9.81;63.78
64362;BME280;50685;53.346;-6.296;2023-04-27T01:16:43;101342.88;;;10.19;63.63
64362;BME280;50685;53.346;-6.296;2023-04-27T01:19:11;101299.66;;;9.95;63.15
64362;BME280;50685;53.346;-6.296;2023-04-27T01:21:37;101287.28;;;9.99;63.05
64362;BME280;50685;53.346;-6.296;2023-04-27T01:24:06;101317.25;;;10.16;63.18
64362;BME280;50685;53.346;-6.296;2023-04-27T01:26:35;101274.91;;;9.97;63.24
64362;BME280;50685;53.346;-6.296;2023-04-27T01:29:01;101289.91;;;10.05;64.08
64362;BME280;50685;53.346;-6.296;2023-04-27T01:31:30;101274.06;;;9.95;64.35
64362;BME280;50685;53.346;-6.296;2023-04-27T01:33:55;101248.47;;;9.79;64.03
64362;BME280;50685;53.346;-6.296;2023-04-27T01:36:21;101303.16;;;10.14;64.38
64362;BME280;50685;53.346;-6.296;2023-04-27T01:38:49;101236.13;;;9.75;65.39
64362;BME280;50685;53.346;-6.296;2023-04-27T01:41:15;101252.00;;;9.83;65.89
64362;BME280;50685;53.346;-6.296;2023-04-27T01:43:41;101253.72;;;9.91;65.42
64362;BME280;50685;53.346;-6.296;2023-04-27T01:46:10;101277.56;;;10.05;65.64
64362;BME280;50685;53.346;-6.296;2023-04-27T01:48:36;101273.13;;;10.04;65.88
64362;BME280;50685;53.346;-6.296;2023-04-27T01:51:02;101269.63;;;10.05;66.01
64362;BME280;50685;53.346;-6.296;2023-04-27T01:53:35;101198.19;;;9.65;66.29
64362;BME280;50685;53.346;-6.296;2023-04-27T01:56:00;101259.91;;;10.04;66.48
64362;BME280;50685;53.346;-6.296;2023-04-27T01:58:26;101257.25;;;10.04;67.02
64362;BME280;50685;53.346;-6.296;2023-04-27T02:00:52;101208.78;;;9.70;66.84
64362;BME280;50685;53.346;-6.296;2023-04-27T02:03:18;101204.34;;;9.70;67.15
64362;BME280;50685;53.346;-6.296;2023-04-27T02:05:43;101257.22;;;10.03;66.90
64362;BME280;50685;53.346;-6.296;2023-04-27T02:08:09;101273.13;;;10.03;66.95
64362;BME280;50685;53.346;-6.296;2023-04-27T02:10:35;101260.78;;;10.02;67.43
64362;BME280;50685;53.346;-6.296;2023-04-27T02:13:02;101200.84;;;9.60;67.26
64362;BME280;50685;53.346;-6.296;2023-04-27T02:15:27;101257.25;;;9.98;66.83
64362;BME280;50685;53.346;-6.296;2023-04-27T02:17:53;101264.28;;;9.99;67.36
64362;BME280;50685;53.346;-6.296;2023-04-27T02:20:20;101220.22;;;9.73;67.67
64362;BME280;50685;53.346;-6.296;2023-04-27T02:22:47;101251.03;;;9.99;67.68
64362;BME280;50685;53.346;-6.296;2023-04-27T02:25:18;101185.84;;;9.62;67.97
64362;BME280;50685;53.346;-6.296;2023-04-27T02:27:43;101243.13;;;9.97;68.26
64362;BME280;50685;53.346;-6.296;2023-04-27T02:30:11;101202.53;;;9.81;68.00
64362;BME280;50685;53.346;-6.296;2023-04-27T02:32:40;101177.03;;;9.59;68.35
64362;BME280;50685;53.346;-6.296;2023-04-27T02:35:09;101235.16;;;10.01;68.21
64362;BME280;50685;53.346;-6.296;2023-04-27T02:37:48;101197.25;;;9.77;68.39
64362;BME280;50685;53.346;-6.296;2023-04-27T02:40:17;101195.50;;;9.79;68.55
64362;BME280;50685;53.346;-6.296;2023-04-27T02:42:42;101175.22;;;9.69;68.54
64362;BME280;50685;53.346;-6.296;2023-04-27T02:45:14;101231.59;;;10.11;68.00
64362;BME280;50685;53.346;-6.296;2023-04-27T02:47:39;101159.31;;;9.75;68.44
64362;BME280;50685;53.346;-6.296;2023-04-27T02:50:11;101225.38;;;10.17;68.60
64362;BME280;50685;53.346;-6.296;2023-04-27T02:52:37;101191.03;;;9.90;69.45
64362;BME280;50685;53.346;-6.296;2023-04-27T02:55:03;101181.31;;;9.95;69.10
64362;BME280;50685;53.346;-6.296;2023-04-27T02:57:32;101179.53;;;9.97;69.93
64362;BME280;50685;53.346;-6.296;2023-04-27T02:59:57;101176.88;;;9.96;69.93
64362;BME280;50685;53.346;-6.296;2023-04-27T03:02:32;101188.28;;;10.12;70.53
64362;BME280;50685;53.346;-6.296;2023-04-27T03:05:08;101170.69;;;10.02;70.78
64362;BME280;50685;53.346;-6.296;2023-04-27T03:07:39;101193.59;;;10.09;71.46
64362;BME280;50685;53.346;-6.296;2023-04-27T03:10:05;101214.75;;;10.24;71.64
64362;BME280;50685;53.346;-6.296;2023-04-27T03:12:33;101204.13;;;10.24;71.51
64362;BME280;50685;53.346;-6.296;2023-04-27T03:15:01;101197.94;;;10.28;71.38
64362;BME280;50685;53.346;-6.296;2023-04-27T03:17:30;101206.75;;;10.31;72.16
64362;BME280;50685;53.346;-6.296;2023-04-27T03:20:06;101191.72;;;10.34;71.49
64362;BME280;50685;53.346;-6.296;2023-04-27T03:22:55;101141.50;;;10.06;71.56
64362;BME280;50685;53.346;-6.296;2023-04-27T03:26:00;101184.66;;;10.32;71.92
64362;BME280;50685;53.346;-6.296;2023-04-27T03:28:34;101192.59;;;10.44;71.85
64362;BME280;50685;53.346;-6.296;2023-04-27T03:31:12;101165.22;;;10.33;71.91
64362;BME280;50685;53.346;-6.296;2023-04-27T03:33:43;101189.94;;;10.47;72.33
64362;BME280;50685;53.346;-6.296;2023-04-27T03:36:19;101187.28;;;10.42;73.79
64362;BME280;50685;53.346;-6.296;2023-04-27T03:38:45;101104.44;;;10.02;72.99
64362;BME280;50685;53.346;-6.296;2023-04-27T03:41:14;101189.91;;;10.45;73.51
64362;BME280;50685;53.346;-6.296;2023-04-27T03:43:49;101122.06;;;10.10;73.74
64362;BME280;50685;53.346;-6.296;2023-04-27T03:46:42;101153.72;;;10.37;74.03
64362;BME280;50685;53.346;-6.296;2023-04-27T03:49:10;101164.25;;;10.49;74.10
64362;BME280;50685;53.346;-6.296;2023-04-27T03:51:37;101119.31;;;10.27;74.17
64362;BME280;50685;53.346;-6.296;2023-04-27T03:54:06;101136.91;;;10.35;74.67
64362;BME280;50685;53.346;-6.296;2023-04-27T03:56:35;101088.41;;;10.22;75.07
64362;BME280;50685;53.346;-6.296;2023-04-27T03:59:06;101107.78;;;10.36;75.27
64362;BME280;50685;53.346;-6.296;2023-04-27T04:01:34;101168.59;;;10.63;74.72
64362;BME280;50685;53.346;-6.296;2023-04-27T04:04:10;101128.03;;;10.50;75.39
64362;BME280;50685;53.346;-6.296;2023-04-27T04:06:36;101084.00;;;10.21;75.04
64362;BME280;50685;53.346;-6.296;2023-04-27T04:09:21;101124.47;;;10.52;75.39
64362;BME280;50685;53.346;-6.296;2023-04-27T04:11:50;101098.94;;;10.34;75.28
64362;BME280;50685;53.346;-6.296;2023-04-27T04:14:28;101155.31;;;10.64;76.22
64362;BME280;50685;53.346;-6.296;2023-04-27T04:17:04;101106.88;;;10.36;76.24
64362;BME280;50685;53.346;-6.296;2023-04-27T04:19:32;101142.09;;;10.59;76.30
64362;BME280;50685;53.346;-6.296;2023-04-27T04:21:58;101082.19;;;10.24;76.94
64362;BME280;50685;53.346;-6.296;2023-04-27T04:24:23;101087.53;;;10.18;77.46
64362;BME280;50685;53.346;-6.296;2023-04-27T04:26:54;101148.38;;;10.48;78.17
64362;BME280;50685;53.346;-6.296;2023-04-27T04:29:23;101095.47;;;10.23;78.38
64362;BME280;50685;53.346;-6.296;2023-04-27T04:31:53;101149.25;;;10.47;78.87
64362;BME280;50685;53.346;-6.296;2023-04-27T04:34:19;101105.13;;;10.32;78.94
64362;BME280;50685;53.346;-6.296;2023-04-27T04:36:48;101144.00;;;10.43;79.22
64362;BME280;50685;53.346;-6.296;2023-04-27T04:39:18;101110.47;;;10.30;79.94
64362;BME280;50685;53.346;-6.296;2023-04-27T04:41:47;101073.47;;;10.10;80.10
64362;BME280;50685;53.346;-6.296;2023-04-27T04:44:22;101091.13;;;10.14;80.85
64362;BME280;50685;53.346;-6.296;2023-04-27T04:46:47;101066.47;;;9.96;81.54
64362;BME280;50685;53.346;-6.296;2023-04-27T04:49:16;101110.53;;;10.16;82.04
64362;BME280;50685;53.346;-6.296;2023-04-27T04:51:44;101076.19;;;9.93;83.03
64362;BME280;50685;53.346;-6.296;2023-04-27T04:54:12;101116.75;;;10.09;83.74
64362;BME280;50685;53.346;-6.296;2023-04-27T04:56:40;101132.59;;;10.18;84.82
64362;BME280;50685;53.346;-6.296;2023-04-27T04:59:15;101135.25;;;10.15;84.80
64362;BME280;50685;53.346;-6.296;2023-04-27T05:01:44;101059.56;;;9.69;85.58
64362;BME280;50685;53.346;-6.296;2023-04-27T05:04:20;101102.69;;;9.97;86.03
64362;BME280;50685;53.346;-6.296;2023-04-27T05:06:45;101038.41;;;9.58;85.69
64362;BME280;50685;53.346;-6.296;2023-04-27T05:09:11;101131.78;;;10.07;86.07
64362;BME280;50685;53.346;-6.296;2023-04-27T05:11:39;101100.94;;;9.95;86.16
64362;BME280;50685;53.346;-6.296;2023-04-27T05:14:07;101115.91;;;10.04;85.38
64362;BME280;50685;53.346;-6.296;2023-04-27T05:16:33;101124.69;;;10.12;85.47
64362;BME280;50685;53.346;-6.296;2023-04-27T05:19:00;101120.28;;;10.11;85.82
64362;BME280;50685;53.346;-6.296;2023-04-27T05:21:33;101057.81;;;9.70;85.69
64362;BME280;50685;53.346;-6.296;2023-04-27T05:24:02;101063.94;;;9.76;85.37
64362;BME280;50685;53.346;-6.296;2023-04-27T05:26:28;101083.28;;;9.92;85.42
64362;BME280;50685;53.346;-6.296;2023-04-27T05:28:56;101132.63;;;10.17;85.51
64362;BME280;50685;53.346;-6.296;2023-04-27T05:31:32;101088.59;;;9.92;85.70
64362;BME280;50685;53.346;-6.296;2023-04-27T05:34:00;101118.47;;;10.19;85.33
64362;BME280;50685;53.346;-6.296;2023-04-27T05:36:29;101122.84;;;10.23;85.36
64362;BME280;50685;53.346;-6.296;2023-04-27T05:38:56;101090.25;;;10.10;85.13
64362;BME280;50685;53.346;-6.296;2023-04-27T05:41:24;101051.53;;;9.83;85.44
64362;BME280;50685;53.346;-6.296;2023-04-27T05:43:55;101055.00;;;9.96;85.50
64362;BME280;50685;53.346;-6.296;2023-04-27T05:46:27;101067.38;;;9.95;85.54
64362;BME280;50685;53.346;-6.296;2023-04-27T05:48:58;101056.72;;;10.00;85.45
64362;BME280;50685;53.346;-6.296;2023-04-27T05:51:23;101099.00;;;10.22;85.54
64362;BME280;50685;53.346;-6.296;2023-04-27T05:53:49;101108.72;;;10.24;85.39
64362;BME280;50685;53.346;-6.296;2023-04-27T05:56:14;101093.69;;;10.26;85.29
64362;BME280;50685;53.346;-6.296;2023-04-27T05:58:43;101105.13;;;10.28;85.24
64362;BME280;50685;53.346;-6.296;2023-04-27T06:01:12;101106.91;;;10.29;85.21
64362;BME280;50685;53.346;-6.296;2023-04-27T07:42:08;101059.16;;;10.34;83.65
64362;BME280;50685;53.346;-6.296;2023-04-27T07:44:40;101068.00;;;10.38;83.43
64362;BME280;50685;53.346;-6.296;2023-04-27T07:47:07;101067.13;;;10.39;83.41
64362;BME280;50685;53.346;-6.296;2023-04-27T07:50:02;101071.50;;;10.43;83.00
64362;BME280;50685;53.346;-6.296;2023-04-27T07:52:28;101065.28;;;10.49;82.79
64362;BME280;50685;53.346;-6.296;2023-04-27T07:54:54;101015.94;;;10.27;82.47
64362;BME280;50685;53.346;-6.296;2023-04-27T07:57:19;101037.06;;;10.38;82.39
64362;BME280;50685;53.346;-6.296;2023-04-27T07:59:51;101001.75;;;10.30;81.99
64362;BME280;50685;53.346;-6.296;2023-04-27T08:02:31;100994.72;;;10.24;81.82
64362;BME280;50685;53.346;-6.296;2023-04-27T08:04:58;101009.66;;;10.35;81.99
64362;BME280;50685;53.346;-6.296;2023-04-27T08:07:26;101012.31;;;10.38;81.83
64362;BME280;50685;53.346;-6.296;2023-04-27T08:10:02;101044.75;;;10.68;81.88
64362;BME280;50685;53.346;-6.296;2023-04-27T08:12:38;101021.88;;;10.57;81.44
64362;BME280;50685;53.346;-6.296;2023-04-27T08:15:05;101052.69;;;10.72;81.39
64362;BME280;50685;53.346;-6.296;2023-04-27T08:17:33;101055.34;;;10.72;81.18
64362;BME280;50685;53.346;-6.296;2023-04-27T08:19:59;101045.63;;;10.71;81.35
64362;BME280;50685;53.346;-6.296;2023-04-27T08:22:28;101049.13;;;10.75;81.43
64362;BME280;50685;53.346;-6.296;2023-04-27T08:24:53;101044.69;;;10.77;81.13
64362;BME280;50685;53.346;-6.296;2023-04-27T08:27:19;101013.88;;;10.60;81.20
64362;BME280;50685;53.346;-6.296;2023-04-27T08:29:47;100988.31;;;10.52;81.29
64362;BME280;50685;53.346;-6.296;2023-04-27T08:32:13;101028.84;;;10.71;81.44
64362;BME280;50685;53.346;-6.296;2023-04-27T08:34:39;100970.81;;;10.34;81.50
64362;BME280;50685;53.346;-6.296;2023-04-27T08:37:16;101004.22;;;10.55;81.42
64362;BME280;50685;53.346;-6.296;2023-04-27T08:39:51;101013.94;;;10.56;81.46
64362;BME280;50685;53.346;-6.296;2023-04-27T08:42:29;101020.03;;;10.64;81.61
64362;BME280;50685;53.346;-6.296;2023-04-27T08:44:55;100994.50;;;10.54;81.37
64362;BME280;50685;53.346;-6.296;2023-04-27T08:47:20;100973.31;;;10.51;81.61
64362;BME280;50685;53.346;-6.296;2023-04-27T08:49:48;101009.38;;;10.72;81.33
64362;BME280;50685;53.346;-6.296;2023-04-27T08:52:15;100997.19;;;10.52;81.76
64362;BME280;50685;53.346;-6.296;2023-04-27T08:54:41;101004.13;;;10.64;81.89
64362;BME280;50685;53.346;-6.296;2023-04-27T08:57:13;100960.19;;;10.40;81.83
64362;BME280;50685;53.346;-6.296;2023-04-27T08:59:41;100992.66;;;10.64;81.91
64362;BME280;50685;53.346;-6.296;2023-04-27T09:02:35;100959.19;;;10.50;81.74
64362;BME280;50685;53.346;-6.296;2023-04-27T09:05:01;100931.00;;;10.40;81.91
64362;BME280;50685;53.346;-6.296;2023-04-27T09:07:29;100972.22;;;10.70;81.49
64362;BME280;50685;53.346;-6.296;2023-04-27T09:10:02;100943.22;;;10.56;81.18
64362;BME280;50685;53.346;-6.296;2023-04-27T09:12:29;100977.44;;;10.81;81.58
64362;BME280;50685;53.346;-6.296;2023-04-27T09:14:59;100984.50;;;10.82;81.64
64362;BME280;50685;53.346;-6.296;2023-04-27T09:17:29;100975.59;;;10.86;81.35
64362;BME280;50685;53.346;-6.296;2023-04-27T09:20:15;100931.59;;;10.67;81.22
64362;BME280;50685;53.346;-6.296;2023-04-27T09:25:10;100975.53;;;10.94;81.37
64362;BME280;50685;53.346;-6.296;2023-04-27T09:27:38;100940.34;;;10.75;81.30
64362;BME280;50685;53.346;-6.296;2023-04-27T09:30:13;100972.88;;;10.94;81.24
64362;BME280;50685;53.346;-6.296;2023-04-27T09:32:51;100975.38;;;11.06;81.09
64362;BME280;50685;53.346;-6.296;2023-04-27T09:35:25;100972.69;;;11.09;81.45
64362;BME280;50685;53.346;-6.296;2023-04-27T09:37:52;100924.41;;;10.76;81.36
64362;BME280;50685;53.346;-6.296;2023-04-27T09:40:23;100958.72;;;10.95;81.59
64362;BME280;50685;53.346;-6.296;2023-04-27T09:42:53;100924.50;;;10.69;82.15
64362;BME280;50685;53.346;-6.296;2023-04-27T09:45:19;100945.50;;;10.87;82.61
64362;BME280;50685;53.346;-6.296;2023-04-27T09:47:45;100962.25;;;10.94;82.93
64362;BME280;50685;53.346;-6.296;2023-04-27T09:50:12;100953.41;;;10.95;83.40
64362;BME280;50685;53.346;-6.296;2023-04-27T09:52:41;100963.03;;;11.02;83.59
64362;BME280;50685;53.346;-6.296;2023-04-27T10:01:12;100946.91;;;11.19;83.40
64362;BME280;50685;53.346;-6.296;2023-04-27T10:08:59;100891.44;;;10.99;81.39
64362;BME280;50685;53.346;-6.296;2023-04-27T10:11:39;100892.38;;;10.93;81.32
64362;BME280;50685;53.346;-6.296;2023-04-27T10:14:21;100932.78;;;11.17;81.39
64362;BME280;50685;53.346;-6.296;2023-04-27T10:16:54;100937.31;;;11.09;81.77
64362;BME280;50685;53.346;-6.296;2023-04-27T10:19:26;100897.81;;;10.84;82.11
64362;BME280;50685;53.346;-6.296;2023-04-27T10:22:10;100933.84;;;11.01;82.14
64362;BME280;50685;53.346;-6.296;2023-04-27T10:24:48;100885.50;;;10.77;82.05
64362;BME280;50685;53.346;-6.296;2023-04-27T10:27:16;100889.84;;;10.84;81.91
64362;BME280;50685;53.346;-6.296;2023-04-27T10:29:46;100941.81;;;11.04;81.92
64362;BME280;50685;53.346;-6.296;2023-04-27T10:32:25;100883.75;;;10.76;82.15
64362;BME280;50685;53.346;-6.296;2023-04-27T10:35:01;100933.84;;;11.04;81.94
64362;BME280;50685;53.346;-6.296;2023-04-27T10:37:40;100882.03;;;10.72;81.94
64362;BME280;50685;53.346;-6.296;2023-04-27T10:40:08;100926.72;;;11.06;82.03
64362;BME280;50685;53.346;-6.296;2023-04-27T10:42:45;100933.69;;;11.16;81.80
64362;BME280;50685;53.346;-6.296;2023-04-27T10:45:11;100866.84;;;10.85;81.40
64362;BME280;50685;53.346;-6.296;2023-04-27T10:47:45;100920.31;;;11.22;81.32
64362;BME280;50685;53.346;-6.296;2023-04-27T10:50:12;100908.19;;;11.03;81.56
64362;BME280;50685;53.346;-6.296;2023-04-27T10:52:45;100922.28;;;11.08;82.05
64362;BME280;50685;53.346;-6.296;2023-04-27T10:55:19;100923.25;;;11.01;83.45
64362;BME280;50685;53.346;-6.296;2023-04-27T10:57:49;100871.38;;;10.75;83.62
64362;BME280;50685;53.346;-6.296;2023-04-27T11:00:27;100917.06;;;11.00;83.69
64362;BME280;50685;53.346;-6.296;2023-04-27T11:02:54;100916.19;;;11.01;83.77
64362;BME280;50685;53.346;-6.296;2023-04-27T11:05:25;100915.28;;;11.01;83.33
64362;BME280;50685;53.346;-6.296;2023-04-27T11:08:12;100849.41;;;10.64;83.46
64362;BME280;50685;53.346;-6.296;2023-04-27T11:10:43;100863.41;;;10.75;83.91
64362;BME280;50685;53.346;-6.296;2023-04-27T11:13:13;100892.28;;;11.00;84.11
64362;BME280;50685;53.346;-6.296;2023-04-27T11:15:49;100892.22;;;11.06;83.81
64362;BME280;50685;53.346;-6.296;2023-04-27T11:18:16;100886.91;;;11.06;83.90
64362;BME280;50685;53.346;-6.296;2023-04-27T11:20:43;100847.31;;;10.90;83.70
64362;BME280;50685;53.346;-6.296;2023-04-27T11:23:10;100819.97;;;10.85;83.13
64362;BME280;50685;53.346;-6.296;2023-04-27T11:25:36;100837.38;;;11.06;83.03
64362;BME280;50685;53.346;-6.296;2023-04-27T11:28:02;100808.38;;;10.91;82.96
64362;BME280;50685;53.346;-6.296;2023-04-27T11:30:28;100848.75;;;11.13;83.39
64362;BME280;50685;53.346;-6.296;2023-04-27T11:32:57;100865.28;;;11.34;83.15
64362;BME280;50685;53.346;-6.296;2023-04-27T11:35:32;100817.94;;;11.03;83.03
64362;BME280;50685;53.346;-6.296;2023-04-27T11:37:58;100818.75;;;11.08;82.87
64362;BME280;50685;53.346;-6.296;2023-04-27T11:43:24;100853.00;;;11.27;83.08
64362;BME280;50685;53.346;-6.296;2023-04-27T11:45:50;100859.94;;;11.35;83.28
64362;BME280;50685;53.346;-6.296;2023-04-27T11:51:25;100830.25;;;11.10;83.35
64362;BME280;50685;53.346;-6.296;2023-04-27T11:53:54;100826.66;;;11.13;83.25
64362;BME280;50685;53.346;-6.296;2023-04-27T11:56:23;100828.41;;;11.12;83.17
64362;BME280;50685;53.346;-6.296;2023-04-27T11:58:51;100856.38;;;11.36;83.24
64362;BME280;50685;53.346;-6.296;2023-04-27T12:01:19;100816.81;;;11.21;83.32
64362;BME280;50685;53.346;-6.296;2023-04-27T12:03:45;100810.69;;;11.14;83.16
64362;BME280;50685;53.346;-6.296;2023-04-27T12:06:32;100839.53;;;11.39;83.12
64362;BME280;50685;53.346;-6.296;2023-04-27T12:12:23;100846.59;;;11.40;83.56
64362;BME280;50685;53.346;-6.296;2023-04-27T12:14:49;100790.44;;;11.10;83.62
64362;BME280;50685;53.346;-6.296;2023-04-27T12:17:16;100850.88;;;11.50;83.80
64362;BME280;50685;53.346;-6.296;2023-04-27T12:19:44;100845.47;;;11.56;83.40
64362;BME280;50685;53.346;-6.296;2023-04-27T12:22:09;100808.59;;;11.36;82.79
64362;BME280;50685;53.346;-6.296;2023-04-27T12:24:50;100804.06;;;11.43;82.59
64362;BME280;50685;53.346;-6.296;2023-04-27T12:27:34;100807.56;;;11.47;82.52
64362;BME280;50685;53.346;-6.296;2023-04-27T12:30:23;100836.38;;;11.70;82.76
64362;BME280;50685;53.346;-6.296;2023-04-27T12:32:59;100782.94;;;11.35;82.68
64362;BME280;50685;53.346;-6.296;2023-04-27T12:35:36;100808.50;;;11.43;83.02
64362;BME280;50685;53.346;-6.296;2023-04-27T12:38:07;100805.72;;;11.50;83.16
64362;BME280;50685;53.346;-6.296;2023-04-27T12:40:33;100804.81;;;11.53;83.30
64362;BME280;50685;53.346;-6.296;2023-04-27T12:42:59;100801.97;;;11.62;83.14
64362;BME280;50685;53.346;-6.296;2023-04-27T12:45:25;100819.41;;;11.79;82.42
64362;BME280;50685;53.346;-6.296;2023-04-27T12:47:51;100791.31;;;11.64;82.61
64362;BME280;50685;53.346;-6.296;2023-04-27T12:50:19;100832.28;;;12.03;82.56
64362;BME280;50685;53.346;-6.296;2023-04-27T12:52:44;100801.66;;;11.81;82.61
64362;BME280;50685;53.346;-6.296;2023-04-27T12:55:14;100787.59;;;11.74;83.13
64362;BME280;50685;53.346;-6.296;2023-04-27T12:57:48;100840.28;;;12.02;83.14
64362;BME280;50685;53.346;-6.296;2023-04-27T13:00:24;100827.06;;;11.99;82.96
64362;BME280;50685;53.346;-6.296;2023-04-27T13:02:53;100812.88;;;12.00;82.76
64362;BME280;50685;53.346;-6.296;2023-04-27T13:07:57;100835.63;;;12.15;82.58
64362;BME280;50685;53.346;-6.296;2023-04-27T13:10:32;100817.75;;;12.21;82.45
64362;BME280;50685;53.346;-6.296;2023-04-27T13:13:09;100821.34;;;12.20;82.51
64362;BME280;50685;53.346;-6.296;2023-04-27T13:15:46;100786.16;;;12.06;81.76
64362;BME280;50685;53.346;-6.296;2023-04-27T13:18:15;100822.00;;;12.32;81.56
64362;BME280;50685;53.346;-6.296;2023-04-27T13:20:43;100763.16;;;12.05;81.34
64362;BME280;50685;53.346;-6.296;2023-04-27T13:23:09;100752.47;;;12.07;81.42
64362;BME280;50685;53.346;-6.296;2023-04-27T13:25:41;100747.72;;;12.23;80.61
64362;BME280;50685;53.346;-6.296;2023-04-27T13:28:13;100786.56;;;12.74;79.82
64362;BME280;50685;53.346;-6.296;2023-04-27T13:30:39;100784.53;;;12.85;79.37
64362;BME280;50685;53.346;-6.296;2023-04-27T13:33:20;100806.59;;;12.90;79.29
64362;BME280;50685;53.346;-6.296;2023-04-27T13:56:59;100746.22;;;12.92;78.18
64362;BME280;50685;53.346;-6.296;2023-04-27T13:59:25;100752.44;;;12.91;78.28
64362;BME280;50685;53.346;-6.296;2023-04-27T14:01:50;100756.69;;;13.00;77.74
64362;BME280;50685;53.346;-6.296;2023-04-27T14:04:16;100776.63;;;13.20;77.40
64362;BME280;50685;53.346;-6.296;2023-04-27T14:06:41;100735.22;;;13.06;77.25
64362;BME280;50685;53.346;-6.296;2023-04-27T14:09:08;100765.91;;;13.23;76.72
64362;BME280;50685;53.346;-6.296;2023-04-27T14:11:35;100737.94;;;13.05;77.29
64362;BME280;50685;53.346;-6.296;2023-04-27T14:14:00;100730.00;;;13.03;76.82
64362;BME280;50685;53.346;-6.296;2023-04-27T14:16:26;100747.75;;;13.02;77.60
64362;BME280;50685;53.346;-6.296;2023-04-27T14:18:51;100732.22;;;12.84;77.70
64362;BME280;50685;53.346;-6.296;2023-04-27T14:21:20;100718.31;;;12.71;78.37
64362;BME280;50685;53.346;-6.296;2023-04-27T14:23:47;100744.25;;;12.61;78.87
64362;BME280;50685;53.346;-6.296;2023-04-27T14:26:14;100741.69;;;12.57;79.89
64362;BME280;50685;53.346;-6.296;2023-04-27T14:28:39;100781.19;;;12.75;79.71
64362;BME280;50685;53.346;-6.296;2023-04-27T14:31:08;100736.59;;;12.46;79.97
64362;BME280;50685;53.346;-6.296;2023-04-27T14:33:43;100710.41;;;12.27;80.18
64362;BME280;50685;53.346;-6.296;2023-04-27T14:36:09;100767.31;;;12.62;80.70
64362;BME280;50685;53.346;-6.296;2023-04-27T14:38:35;100755.28;;;12.44;80.90
64362;BME280;50685;53.346;-6.296;2023-04-27T14:41:03;100729.66;;;12.40;80.87
64362;BME280;50685;53.346;-6.296;2023-04-27T14:43:32;100785.81;;;12.67;81.10
64362;BME280;50685;53.346;-6.296;2023-04-27T14:45:58;100710.50;;;12.24;81.14
64362;BME280;50685;53.346;-6.296;2023-04-27T14:48:32;100722.72;;;12.31;81.00
64362;BME280;50685;53.346;-6.296;2023-04-27T14:50:58;100772.78;;;12.54;81.71
64362;BME280;50685;53.346;-6.296;2023-04-27T14:53:51;100711.41;;;12.21;81.51
64362;BME280;50685;53.346;-6.296;2023-04-27T14:56:30;100766.53;;;12.56;82.02
64362;BME280;50685;53.346;-6.296;2023-04-27T14:59:01;100703.28;;;12.29;81.69
64362;BME280;50685;53.346;-6.296;2023-04-27T15:01:47;100719.69;;;12.48;81.35
64362;BME280;50685;53.346;-6.296;2023-04-27T15:07:11;100690.34;;;12.53;79.70
64362;BME280;50685;53.346;-6.296;2023-04-27T15:09:50;100747.09;;;12.93;79.55
64362;BME280;50685;53.346;-6.296;2023-04-27T15:12:16;100717.44;;;12.70;79.41
64362;BME280;50685;53.346;-6.296;2023-04-27T15:14:41;100723.50;;;12.77;79.77
64362;BME280;50685;53.346;-6.296;2023-04-27T15:17:07;100734.06;;;12.80;80.15
64362;BME280;50685;53.346;-6.296;2023-04-27T15:19:32;100737.53;;;12.85;80.18
64362;BME280;50685;53.346;-6.296;2023-04-27T15:21:59;100692.94;;;12.56;80.41
64362;BME280;50685;53.346;-6.296;2023-04-27T15:24:27;100714.06;;;12.64;80.54
64362;BME280;50685;53.346;-6.296;2023-04-27T15:38:13;100676.28;;;12.07;81.87